Aviation Digital Data Service (ADDS)

Output produced by METARs form (1202 UTC 24 February 2018)
found at http://www.aviationweather.gov/adds/metars/
 
KGBD 241120Z 2412/2512 03007KT 2SM -FZDZ OVC003 
     FM241700 31011KT P6SM SCT009 BKN015 
     FM241900 30014KT P6SM SCT030 
     FM250200 27008KT P6SM SKC AMD LTD TO CLD VIS AND WIND
       
KGCC 241120Z 2412/2512 24008KT P6SM SCT100 BKN250
       
KGCK 241120Z 2412/2512 07004KT P6SM OVC004 
     FM241700 30014G24KT P6SM BKN008 
     FM242100 33025G35KT P6SM FEW200 
     FM250600 25005KT P6SM SKC
       
KGCN 241120Z 2412/2512 VRB06KT P6SM SKC 
     FM241900 25010G15KT P6SM SCT200 
     FM250100 25005KT P6SM SCT090 BKN250
       
KGDV 241126Z 2412/2512 20012KT P6SM FEW150 
     FM242100 26011KT P6SM BKN070 
     FM242200 26010KT P6SM SCT060
       
KGEG 241132Z 2412/2512 15006KT P6SM FEW025 OVC050 
     FM241500 16007KT 2SM -SN BR OVC015 
     FM242100 28007KT P6SM BKN025 BKN100 
     FM250000 22007KT P6SM FEW025 SCT120 
     FM250900 20016G22KT P6SM FEW020 OVC150
       
TAF KGFA 240401Z 2404/2510 23015G25KT 9999 SKC 520009 QNH2979INS 
     BECMG 2422/2423 25012KT 9999 SCT050 QNH2958INS TXM02/2500Z TNM11/2412Z
       
KGFK 241138Z 2412/2512 16012KT P6SM SKC 
     FM241800 18015KT P6SM BKN008 
     FM250200 17006KT 2SM -SN OVC010 
     FM250300 17006KT 1SM -SN OVC010 
     FM250600 20004KT P6SM OVC015 
     FM250700 22005KT P6SM BKN035
       
KGFL 241120Z 2412/2512 VRB03KT 2SM BR BKN005 OVC035 WS020/28035KT 
     TEMPO 2412/2413 1/4SM FG VV002 
     FM241300 26006KT P6SM SCT025 OVC035 
     FM241700 32006KT P6SM SCT035 BKN180 
     FM250500 04004KT P6SM BKN130 
     PROB30 2510/2512 4SM -SNPL BR BKN025 OVC040
       
KGGG 241143Z 2412/2512 18007KT P6SM BKN010 OVC060 
     TEMPO 2412/2415 4SM BR OVC004 
     FM241800 19018G30KT P6SM VCTS BKN030CB 
     TEMPO 2419/2421 1SM +TSRA BR OVC015CB 
     FM250000 35005KT P6SM SCT200 
     TEMPO 2500/2502 28010KT BKN080
       
KGGW 241126Z 2412/2512 VRB04KT P6SM FEW110 WS020/28030KT 
     FM241600 22005KT P6SM FEW080 
     FM241800 25006KT P6SM BKN040 
     FM250700 28005KT P6SM BKN070
       
KGJT 241140Z 2412/2512 30008KT P6SM SCT080 
     FM241400 33004KT P6SM FEW080 SCT110 
     FM241800 32006KT P6SM FEW080 SCT150 
     FM250200 11005KT P6SM SCT060 BKN080
       
KGKY 241127Z 2412/2512 04004KT 2SM -RA VCTS OVC003CB 
     TEMPO 2412/2414 2SM -TSRA OVC004CB 
     FM241400 20013KT 3SM BR VCTS OVC006CB 
     TEMPO 2414/2417 27015G25KT 1SM TSRA 
     FM241800 27016KT P6SM BKN015 
     FM241900 27013KT P6SM SCT025 
     FM250000 30010KT P6SM SCT250 
     FM250900 05007KT P6SM FEW250
       
KGLD 241138Z 2412/2512 VRB04KT 5SM BR OVC006 
     TEMPO 2412/2415 3SM -SN BR OVC004 
     FM241500 31010KT P6SM BKN060 
     FM241700 32017G28KT P6SM BKN110 
     FM242300 29011KT P6SM SKC 
     FM250900 23007KT P6SM SCT200
       
KGLH 241154Z 2412/2512 18008KT P6SM VCSH SCT008 BKN012 OVC020 
     FM241500 18014G24KT P6SM VCSH BKN015 BKN025 
     FM241900 19022G35KT P6SM VCTS BKN035CB 
     FM250300 20020G30KT 2SM TSRA BKN015 OVC025CB 
     FM250700 31012KT P6SM -RA SCT025 OVC060
       
KGLS 241136Z 2412/2512 15012KT 6SM BR OVC025 
     FM241500 15010KT 3SM BR OVC007 
     FM241800 16014KT 4SM BR OVC010 
     FM242300 17012KT 1SM BR VCSH OVC005 
     FM250400 18007KT 1SM -SHRA BR OVC003 
     FM251100 26005KT 2SM -SHRA BR OVC003
       
KGMU 241125Z 2412/2512 00000KT P6SM BKN009 
     TEMPO 2412/2415 OVC010 
     FM241500 22007KT P6SM BKN030 
     FM241600 22010KT P6SM BKN040 
     FM242200 20005KT P6SM BKN100 
     FM251000 20008KT P6SM VCSH BKN040
       
KGNV 241120Z 2412/2512 00000KT 1/2SM FG VV002 
     FM241330 14003KT 1SM BR BKN003 
     FM241400 15006KT P6SM FEW015 
     FM241800 16007KT P6SM BKN040 
     FM250200 15004KT P6SM VCSH SCT040 BKN060
       
KGON 241200Z 2412/2512 25004KT 2SM BR OVC004 
     FM241400 31008KT P6SM SCT100 BKN200 
     FM241900 32009KT P6SM FEW020 OVC080 
     FM242300 32006KT 6SM -RA SCT025 OVC070 
     FM250200 VRB03KT 6SM -RA SCT015 OVC030 
     FM250500 06007KT 6SM -RA SCT009 OVC030 
     FM250700 07011G21KT 5SM -RA OVC025 
     FM251100 08015G27KT 5SM RA BR OVC018
       
KGPT 241144Z 2412/2512 18007KT P6SM SCT025 
     FM241500 15012G20KT P6SM OVC035 
     FM242000 15014G21KT P6SM VCSH BKN020 
     FM250000 18010KT P6SM SCT015 
     FM250800 17006KT 4SM BR OVC003
       
KGRB 241143Z 2412/2512 VRB03KT P6SM BKN025 
     TEMPO 2412/2414 5SM BR SCT025 
     FM241600 09007KT P6SM SCT030 
     FM242100 08010G17KT P6SM BKN080 
     FM250200 08016G28KT 5SM -RAPL BR BKN020 
     FM250500 10012G25KT 3SM RA BR OVC003 
     FM251000 23015G25KT 1 1/2SM -RASN OVC008
       
TAF AMD KGRF 240942Z 2409/2511 18012G18KT 6000 -RASN OVC018 620206 QNH3000INS 
     BECMG 2414/2415 21009KT 8000 -RA FEW020 BKN030 620604 QNH2991INS 
     BECMG 2422/2423 23012G18KT 9999 NSW BKN020 OVC060 620204 QNH3004INS 
     BECMG 2504/2505 23015G25KT 6000 -RA SCT010 BKN020 620204 520053 QNH2986INS TX07/2421Z TN02/2409Z
       
KGRI 241145Z 2412/2512 04006KT 1/2SM -FZDZSN FG OVC003 
     FM241600 VRB04KT 3SM -FZDZSN BR OVC006 
     FM242000 VRB04KT P6SM OVC008 
     FM242200 28007KT P6SM BKN030 
     FM250300 25008KT P6SM SKC
       
TAF AMD KGRK 241040Z 2410/2514 15009KT 2800 BR OVC007 QNH2986INS 
     BECMG 2411/2412 16012G18KT 1600 -SHRA BR OVC003 QNH2985INS 
     TEMPO 2413/2415 18015G25KT 1200 -TSRA BR OVC003CB 
     BECMG 2414/2415 18015G25KT 4800 SHRA OVC003 QNH2983INS 
     TEMPO 2415/2419 18030G45KT 1600 +TSRAGR OVC002CB 
     BECMG 2419/2420 24010G15KT 9999 NSW BKN008 OVC015 QNH2982INS 
     BECMG 2422/2423 27012KT 9999 SCT010 BKN160 QNH2984INS 
     BECMG 2501/2502 30009KT 9999 SCT180 QNH2990INS 
     BECMG 2509/2510 VRB06KT 9999 BKN100 QNH2998INS TX21/2421Z TN09/2508Z
       
KGRR 241148Z 2412/2512 06004KT P6SM OVC021 
     FM241900 10010KT P6SM OVC035 
     FM250200 11015G24KT P6SM OVC010 
     FM250300 11016G26KT 3SM -SHRA OVC010 WS020/14040KT 
     FM250800 16013G25KT 4SM -SHRA OVC003 WS020/20050KT 
     FM251000 24020G34KT P6SM OVC025 WS006/22015KT
       
TAF AMD KGSB 241150Z 2411/2511 18006KT 9999 OVC005 QNH3021INS 
     BECMG 2413/2414 19006KT 6000 BR SCT005 BKN012 BKN030 QNH3010INS 
     BECMG 2417/2418 21012G18KT 9999 NSW SCT018 BKN030 QNH3008INS 
     BECMG 2501/2502 20009KT 9999 SCT030 QNH3006INS 
     BECMG 2507/2508 21009KT 9999 SCT010 BKN030 QNH3004INS TX27/2418Z TN14/2412Z
       
KGSO 241120Z 2412/2512 VRB04KT 6SM BR SCT050 
     TEMPO 2412/2414 1SM BR BKN010 
     FM241400 22006KT P6SM BKN025 
     FM241800 21009KT P6SM BKN050 
     FM251000 21010KT P6SM BKN015
       
KGSP 241133Z 2412/2512 VRB03KT P6SM BKN009 
     TEMPO 2412/2414 BKN010 
     FM241400 22010KT P6SM BKN040 
     FM242100 21011KT P6SM SCT090 BKN150 
     FM251000 20009KT P6SM VCSH BKN026
       
TAF KGTB 240900Z 2409/2515 24009KT 4800 BR FEW007 OVC020 QNH3010INS 
     BECMG 2412/2413 28009KT 9999 NSW OVC010 620202 QNH3018INS WND VRB06KT AFT 2416 
     BECMG 2421/2422 VRB06KT 9999 FEW015 QNH2986INS 
     BECMG 2511/2512 09009KT 4800 -RA BKN010 OVC020 QNH2979INS TX04/2409Z TNM02/2502Z
       
KGTF 241124Z 2412/2512 22018G25KT P6SM BKN100 
     FM241500 22018G32KT P6SM SCT100 
     FM250700 23012G23KT P6SM SCT250
       
KGTR 241154Z 2412/2512 17007KT P6SM VCSH BKN020 OVC030 
     FM241500 18012G20KT P6SM VCSH BKN025 BKN035 
     FM241900 18015G25KT P6SM VCSH BKN040 
     FM250800 20017G28KT 2SM TSRA BKN015 OVC025CB
       
KGUC 241140Z 2412/2512 24008KT P6SM VCSH SCT110 
     FM241300 24008KT P6SM VCSH SCT025 BKN040 
     TEMPO 2413/2414 2SM -SHSN BR SCT012 OVC020 
     FM241600 25010KT P6SM SCT040 BKN060 
     FM241900 25014G23KT P6SM FEW060 SCT140 
     FM250000 26009KT P6SM FEW060 SCT200 
     FM250600 35005KT P6SM FEW030 BKN040
       
KGUP 241120Z 2412/2512 26012KT P6SM VCSH BKN015 BKN035 
     FM241400 26012KT P6SM SCT025 SCT050 
     FM241900 25015G25KT P6SM SKC 
     FM250100 24008KT P6SM SCT100
       
TAF KGUS 241100Z 2411/2517 07009KT 6000 -RA BR OVC005 620709 540253 QNH3004INS 
     BECMG 2415/2416 08010G15KT 8000 -RA OVC007 620903 540353 QNH2991INS 
     BECMG 2420/2421 10012KT 9000 -DZ OVC007 540203 QNH2976INS 
     BECMG 2500/2501 08015KT 8000 -RA OVC005 540154 QNH2954INS 
     TEMPO 2503/2506 23020G30KT 4800 -TSRA OVC005CB 
     BECMG 2505/2506 24010G20KT 9000 -RA BKN007 OVC020 510203 QNH2954INS 
     BECMG 2508/2509 25012G18KT 9999 NSW SCT010 BKN020 510203 QNH2968INS 
     BECMG 2511/2512 24015G25KT 9999 FEW020 510302 QNH2981INS 
     BECMG 2514/2515 24010G20KT 9999 SKC QNH2989INS TX10/2502Z TN02/2411Z
       
KGWO 241154Z 2412/2512 19011KT P6SM VCSH SCT008 BKN012 OVC020 
     FM241500 19014G24KT P6SM VCSH BKN015 OVC025 
     FM241900 18020G32KT P6SM VCTS BKN035CB 
     FM250500 20017G28KT 2SM TSRA BKN015 OVC025CB 
     FM250900 31009KT P6SM -RA SCT025 OVC060
       
KGYY 241124Z 2412/2512 03008KT P6SM OVC018 
     FM241400 06012KT P6SM OVC015 
     TEMPO 2415/2419 -RA 
     FM242300 09012G20KT P6SM VCSH OVC008 
     FM250300 12015G25KT 2SM -SHRA BR OVC006 
     FM250800 25022G33KT P6SM BKN020